createdAt,value
2018-05-10T00:03:00.942Z,100053.12
2018-05-10T00:08:02.271Z,100057.67
2018-05-10T00:13:03.578Z,100054.63
2018-05-10T00:18:05.641Z,100051.28
2018-05-10T00:23:06.933Z,100056.48
2018-05-10T00:28:08.249Z,100044.44
2018-05-10T00:33:10.294Z,100037.83
2018-05-10T00:38:11.602Z,100033.32
2018-05-10T00:43:12.947Z,100022.39
2018-05-10T00:48:14.992Z,100013.65
2018-05-10T00:53:16.297Z,100011.23
2018-05-10T00:58:17.602Z,100011.67
2018-05-10T01:03:18.930Z,100012.14
2018-05-10T01:08:20.231Z,100008.09
2018-05-10T01:13:21.573Z,99999.72
2018-05-10T01:18:22.894Z,99999.88
2018-05-10T01:23:24.203Z,99994.50
2018-05-10T01:28:25.518Z,99990.30
2018-05-10T01:33:26.826Z,99983.86
2018-05-10T01:38:28.134Z,99975.61
2018-05-10T01:43:30.180Z,99983.95
2018-05-10T01:48:31.474Z,99975.88
2018-05-10T01:53:32.797Z,99974.53
2018-05-10T01:58:34.093Z,99977.39
2018-05-10T02:03:35.434Z,99984.30
2018-05-10T02:08:36.757Z,99986.00
2018-05-10T02:13:38.062Z,99980.63
2018-05-10T02:18:39.574Z,99991.04
2018-05-10T02:23:41.606Z,99985.59
2018-05-10T02:28:43.809Z,99986.48
2018-05-10T02:33:45.113Z,99983.27
2018-05-10T02:38:46.446Z,99995.83
2018-05-10T02:43:47.781Z,99987.38
2018-05-10T02:48:49.090Z,100006.29
2018-05-10T02:53:50.402Z,100004.61
2018-05-10T02:58:51.698Z,100001.92
2018-05-10T03:03:53.028Z,99986.31
2018-05-10T03:08:54.323Z,99992.91
2018-05-10T03:13:55.618Z,99987.31
2018-05-10T03:18:56.929Z,99983.83
2018-05-10T03:23:58.238Z,99986.61
2018-05-10T03:28:59.530Z,99989.17
2018-05-10T03:34:00.874Z,99982.06
2018-05-10T03:39:02.222Z,99977.56
2018-05-10T03:44:03.539Z,99977.98
2018-05-10T03:49:04.854Z,99980.16
2018-05-10T03:54:06.149Z,99983.78
2018-05-10T03:59:07.542Z,99976.90
2018-05-10T04:04:32.087Z,99975.50
2018-05-10T04:09:52.070Z,99978.42
2018-05-10T04:14:54.188Z,99983.05
2018-05-10T04:19:55.478Z,99982.31
2018-05-10T04:24:56.769Z,99982.75
2018-05-10T04:29:58.069Z,99984.61
2018-05-10T04:34:59.537Z,99986.42
2018-05-10T04:40:00.834Z,99990.92
2018-05-10T04:45:02.177Z,99991.83
2018-05-10T04:50:03.502Z,99995.00
2018-05-10T04:55:04.811Z,100001.44
2018-05-10T05:00:06.102Z,99985.66
2018-05-10T05:05:07.421Z,99992.94
2018-05-10T05:10:08.819Z,100005.73
2018-05-10T05:15:10.247Z,100015.12
2018-05-10T05:20:11.582Z,100018.06
2018-05-10T05:25:12.907Z,100010.14
2018-05-10T05:30:15.017Z,100023.91
2018-05-10T05:35:16.402Z,100023.09
2018-05-10T05:40:18.714Z,100020.08
2018-05-10T05:45:20.016Z,100029.55
2018-05-10T05:50:22.062Z,100036.02
2018-05-10T05:55:23.371Z,100047.34
2018-05-10T06:00:24.706Z,100047.84
2018-05-10T06:05:26.754Z,100055.28
2018-05-10T06:10:28.074Z,100056.05
2018-05-10T06:15:30.274Z,100064.61
2018-05-10T06:20:32.300Z,100066.45
2018-05-10T06:25:33.619Z,100071.91
2018-05-10T06:30:35.002Z,100077.61
2018-05-10T06:35:36.326Z,100075.77
2018-05-10T06:40:37.652Z,100088.55
2018-05-10T06:45:38.961Z,100096.54
2018-05-10T06:50:41.040Z,100107.58
2018-05-10T06:55:42.955Z,100105.03
2018-05-10T07:00:44.277Z,100107.76
2018-05-10T07:05:45.594Z,100117.05
2018-05-10T07:10:46.943Z,100135.34
2018-05-10T07:15:49.395Z,100146.44
2018-05-10T07:20:50.731Z,100146.37
2018-05-10T07:25:52.050Z,100144.86
2018-05-10T07:30:53.400Z,100146.38
2018-05-10T07:35:54.697Z,100141.55
2018-05-10T07:40:56.005Z,100152.87
2018-05-10T07:45:58.070Z,100159.64
2018-05-10T07:50:59.383Z,100176.81
2018-05-10T07:56:01.671Z,100186.02
2018-05-10T08:01:03.070Z,100190.98
2018-05-10T08:06:11.500Z,100207.82
2018-05-10T08:11:13.215Z,100204.91
2018-05-10T08:16:14.536Z,100213.27
2018-05-10T08:21:16.600Z,100221.28
2018-05-10T08:26:17.919Z,100222.53
2018-05-10T08:31:19.252Z,100235.25
2018-05-10T08:36:20.549Z,100236.56
2018-05-10T08:41:21.870Z,100247.00
2018-05-10T08:46:23.174Z,100239.83
2018-05-10T08:51:24.476Z,100237.30
2018-05-10T08:56:25.780Z,100243.03
2018-05-10T09:01:27.111Z,100246.56
2018-05-10T09:06:28.438Z,100258.34
2018-05-10T09:11:30.490Z,100258.07
2018-05-10T09:16:31.794Z,100252.20
2018-05-10T09:21:33.094Z,100251.38
2018-05-10T09:26:34.426Z,100261.80
2018-05-10T09:31:35.782Z,100262.17
2018-05-10T09:36:37.054Z,100273.17
2018-05-10T09:41:38.364Z,100271.81
2018-05-10T09:46:39.653Z,100279.00
2018-05-10T09:51:41.001Z,100281.17
2018-05-10T09:56:42.319Z,100284.06
2018-05-10T10:01:43.645Z,100294.95
2018-05-10T10:06:45.691Z,100299.55
2018-05-10T10:11:47.000Z,100301.83
2018-05-10T10:16:48.322Z,100307.64
2018-05-10T10:21:50.376Z,100316.19
2018-05-10T10:26:51.703Z,100322.14
2018-05-10T10:31:53.114Z,100316.98
2018-05-10T10:36:55.170Z,100330.42
2018-05-10T10:41:56.489Z,100331.77
2018-05-10T10:46:57.823Z,100336.11
2018-05-10T10:51:59.195Z,100336.39
2018-05-10T10:57:00.627Z,100347.38
2018-05-10T11:02:02.110Z,100350.25
2018-05-10T11:07:03.589Z,100365.15
2018-05-10T11:12:05.683Z,100375.28
2018-05-10T11:17:07.711Z,100383.95
2018-05-10T11:22:09.669Z,100384.05
2018-05-10T11:27:12.156Z,100402.47
2018-05-10T11:32:14.161Z,100409.87
2018-05-10T11:37:15.749Z,100423.95
2018-05-10T11:42:17.145Z,100423.87
2018-05-10T11:47:19.098Z,100428.70
2018-05-10T11:52:20.434Z,100433.29
2018-05-10T11:57:22.468Z,100447.39
2018-05-10T12:02:23.959Z,100460.33
2018-05-10T12:07:25.884Z,100469.26
2018-05-10T12:12:27.257Z,100480.95
2018-05-10T12:17:29.176Z,100500.67
2018-05-10T12:22:30.615Z,100507.95
2018-05-10T12:27:32.395Z,100522.34
2018-05-10T12:32:34.685Z,100518.63
2018-05-10T12:37:36.014Z,100530.41
2018-05-10T12:42:37.697Z,100542.53
2018-05-10T12:47:39.067Z,100543.69
2018-05-10T12:52:41.140Z,100555.41
2018-05-10T12:57:42.478Z,100577.09
2018-05-10T13:02:44.646Z,100586.53
2018-05-10T13:07:45.897Z,100603.45
2018-05-10T13:12:47.234Z,100609.22
2018-05-10T13:17:48.610Z,100617.34
2018-05-10T13:22:49.923Z,100620.12
2018-05-10T13:27:51.395Z,100624.72
2018-05-10T13:32:53.033Z,100639.76
2018-05-10T13:37:54.498Z,100643.42
2018-05-10T13:42:56.223Z,100646.00
2018-05-10T13:47:57.836Z,100656.49
2018-05-10T13:52:59.402Z,100661.17
2018-05-10T13:58:00.859Z,100659.62
2018-05-10T14:03:02.427Z,100667.18
2018-05-10T14:08:03.946Z,100663.38
2018-05-10T14:13:05.410Z,100680.42
2018-05-10T14:18:06.884Z,100694.25
2018-05-10T14:23:08.410Z,100706.07
2018-05-10T14:28:09.958Z,100710.77
2018-05-10T14:33:12.887Z,100714.89
2018-05-10T14:38:14.983Z,100731.02
2018-05-10T14:43:16.308Z,100734.16
2018-05-10T14:48:17.688Z,100761.13
2018-05-10T14:53:19.754Z,100780.14
2018-05-10T14:58:21.087Z,100787.96
2018-05-10T15:03:23.205Z,100795.32
2018-05-10T15:08:24.541Z,100794.84
2018-05-10T15:13:25.876Z,100808.12
2018-05-10T15:18:27.185Z,100813.00
2018-05-10T15:23:28.494Z,100809.04
2018-05-10T15:28:29.849Z,100830.50
2018-05-10T15:33:31.174Z,100839.64
2018-05-10T15:38:33.276Z,100833.66
2018-05-10T15:43:34.846Z,100854.72
2018-05-10T15:48:37.014Z,100847.05
2018-05-10T15:53:38.337Z,100855.64
2018-05-10T15:58:39.684Z,100865.78
2018-05-10T16:03:41.039Z,100866.00
2018-05-10T16:08:42.362Z,100882.80
2018-05-10T16:13:44.542Z,100888.15
2018-05-10T16:18:45.954Z,100899.41
2018-05-10T16:23:48.121Z,100908.52
2018-05-10T16:28:49.827Z,100916.90
2018-05-10T16:33:51.319Z,100922.27
2018-05-10T16:38:52.659Z,100930.20
2018-05-10T16:43:54.070Z,100921.81
2018-05-10T16:48:56.139Z,100939.58
2018-05-10T16:53:57.458Z,100960.05
2018-05-10T16:58:59.158Z,100980.73
2018-05-10T17:04:00.496Z,100979.52
2018-05-10T17:09:01.995Z,100993.30
2018-05-10T17:14:04.472Z,100993.98
2018-05-10T17:19:06.390Z,101004.73
2018-05-10T17:24:07.746Z,101012.20
2018-05-10T17:29:09.476Z,101013.36
2018-05-10T17:34:11.554Z,101026.05
2018-05-10T17:39:13.421Z,101041.40
2018-05-10T17:44:14.919Z,101054.73
2018-05-10T17:49:16.285Z,101060.20
2018-05-10T17:54:17.643Z,101057.91
2018-05-10T17:59:19.720Z,101059.49
2018-05-10T18:04:21.748Z,101065.55
2018-05-10T18:09:23.968Z,101070.73
2018-05-10T18:14:25.382Z,101084.84
2018-05-10T18:19:27.477Z,101095.02
2018-05-10T18:24:29.540Z,101107.28
2018-05-10T18:29:31.587Z,101111.77
2018-05-10T18:34:32.928Z,101132.17
2018-05-10T18:39:34.235Z,101143.20
2018-05-10T18:44:36.398Z,101147.63
2018-05-10T18:49:38.119Z,101155.15
2018-05-10T18:54:40.390Z,101164.12
2018-05-10T18:59:41.795Z,101183.70
2018-05-10T19:04:43.109Z,101192.31
2018-05-10T19:09:44.453Z,101207.70
2018-05-10T19:14:47.373Z,101222.33
2018-05-10T19:19:48.719Z,101227.63
2018-05-10T19:24:50.040Z,101230.62
2018-05-10T19:29:51.542Z,101230.77
2018-05-10T19:34:53.598Z,101234.45
2018-05-10T19:39:54.925Z,101248.63
2018-05-10T19:44:56.293Z,101250.19
2018-05-10T19:49:58.648Z,101250.26
2018-05-10T19:55:00.181Z,101260.90
2018-05-10T20:00:01.510Z,101269.20
2018-05-10T20:05:02.849Z,101274.99
2018-05-10T20:10:04.194Z,101276.30
2018-05-10T20:15:06.274Z,101276.64
2018-05-10T20:20:07.608Z,101285.05
2018-05-10T20:25:09.690Z,101294.56
2018-05-10T20:30:11.040Z,101296.58
2018-05-10T20:35:12.376Z,101300.20
2018-05-10T20:40:13.757Z,101297.50
2018-05-10T20:45:15.087Z,101309.73
2018-05-10T20:50:16.422Z,101321.16
2018-05-10T20:55:18.117Z,101323.66
2018-05-10T21:00:19.477Z,101330.83
2018-05-10T21:05:20.859Z,101335.31
2018-05-10T21:10:22.227Z,101334.36
2018-05-10T21:15:24.281Z,101346.11
2018-05-10T21:20:25.617Z,101351.63
2018-05-10T21:25:27.046Z,101354.84
2018-05-10T21:30:28.412Z,101351.30
2018-05-10T21:35:29.732Z,101369.47
2018-05-10T21:40:31.093Z,101367.00
2018-05-10T21:45:32.453Z,101367.61
2018-05-10T21:50:33.778Z,101374.41
2018-05-10T21:55:35.120Z,101383.63
2018-05-10T22:00:37.123Z,101380.30
2018-05-10T22:05:38.479Z,101383.84
2018-05-10T22:10:39.825Z,101392.47
2018-05-10T22:15:41.138Z,101402.94
2018-05-10T22:20:42.461Z,101416.42
2018-05-10T22:25:43.767Z,101412.64
2018-05-10T22:30:45.094Z,101417.81
2018-05-10T22:35:47.187Z,101419.78
2018-05-10T22:40:48.524Z,101433.35
2018-05-10T22:45:49.872Z,101431.67
2018-05-10T22:50:52.004Z,101434.38
2018-05-10T22:55:53.421Z,101438.90
2018-05-10T23:00:54.716Z,101444.86
2018-05-10T23:05:56.059Z,101444.72
2018-05-10T23:10:58.118Z,101454.48
2018-05-10T23:15:59.449Z,101457.09
2018-05-10T23:21:01.524Z,101441.69
2018-05-10T23:26:02.871Z,101442.48
2018-05-10T23:31:04.164Z,101448.31
2018-05-10T23:36:05.500Z,101438.70
2018-05-10T23:41:06.841Z,101444.73
2018-05-10T23:46:08.231Z,101436.72
2018-05-10T23:51:09.564Z,101446.94
2018-05-10T23:56:10.889Z,101451.14
